createdAt,value
2018-09-11T00:00:25.772Z,1016.18
2018-09-11T00:01:34.667Z,1016.15
2018-09-11T00:02:43.324Z,1016.13
2018-09-11T00:03:51.961Z,1016.13
2018-09-11T00:05:00.608Z,1016.13
2018-09-11T00:06:09.243Z,1016.18
2018-09-11T00:07:18.152Z,1016.18
2018-09-11T00:08:27.065Z,1016.18
2018-09-11T00:09:35.714Z,1016.23
2018-09-11T00:10:44.359Z,1016.2
2018-09-11T00:11:52.994Z,1016.21
2018-09-11T00:13:01.908Z,1016.24
2018-09-11T00:14:10.548Z,1016.25
2018-09-11T00:15:19.203Z,1016.21
2018-09-11T00:16:27.837Z,1016.21
2018-09-11T00:17:36.488Z,1016.26
2018-09-11T00:18:45.385Z,1016.26
2018-09-11T00:19:54.039Z,1016.27
2018-09-11T00:21:02.679Z,1016.26
2018-09-11T00:22:11.323Z,1016.23
2018-09-11T00:23:20.231Z,1016.26
2018-09-11T00:24:28.885Z,1016.25
2018-09-11T00:25:37.530Z,1016.24
2018-09-11T00:26:46.168Z,1016.27
2018-09-11T00:27:54.809Z,1016.27
2018-09-11T00:29:03.458Z,1016.22
2018-09-11T00:30:12.375Z,1016.23
2018-09-11T00:31:21.017Z,1016.2
2018-09-11T00:32:29.666Z,1016.22
2018-09-11T00:33:38.306Z,1016.21
2018-09-11T00:34:46.968Z,1016.19
2018-09-11T00:35:55.603Z,1016.17
2018-09-11T00:37:04.253Z,1016.12
2018-09-11T00:38:13.152Z,1016.14
2018-09-11T00:39:22.077Z,1016.2
2018-09-11T00:40:30.719Z,1016.22
2018-09-11T00:41:39.359Z,1016.25
2018-09-11T00:42:48.014Z,1016.27
2018-09-11T00:43:56.663Z,1016.26
2018-09-11T00:45:05.302Z,1016.19
2018-09-11T00:46:13.953Z,1016.18
2018-09-11T00:47:22.589Z,1016.12
2018-09-11T00:48:31.244Z,1016.13
2018-09-11T00:49:39.889Z,1016.18
2018-09-11T00:50:48.537Z,1016.14
2018-09-11T00:51:57.235Z,1016.1
2018-09-11T00:53:05.791Z,1016.08
2018-09-11T00:54:14.412Z,1016.05
2018-09-11T00:55:23.306Z,1016.03
2018-09-11T00:56:31.922Z,1016.06
2018-09-11T00:57:40.562Z,1016.07
2018-09-11T00:58:49.185Z,1016.09
2018-09-11T00:59:58.081Z,1016.06
2018-09-11T01:01:06.699Z,1016.03
2018-09-11T01:02:15.598Z,1016.05
2018-09-11T01:03:24.228Z,1016.02
2018-09-11T01:04:32.858Z,1016.02
2018-09-11T01:05:41.485Z,1015.92
2018-09-11T01:06:50.103Z,1015.86
2018-09-11T01:07:58.735Z,1015.85
2018-09-11T01:09:07.359Z,1015.81
2018-09-11T01:10:16.082Z,1015.82
2018-09-11T01:11:25.057Z,1015.83
2018-09-11T01:12:33.976Z,1015.84
2018-09-11T01:13:42.617Z,1015.86
2018-09-11T01:14:51.271Z,1015.86
2018-09-11T01:15:59.903Z,1015.85
2018-09-11T01:17:08.555Z,1015.86
2018-09-11T01:18:17.194Z,1015.88
2018-09-11T01:19:25.849Z,1015.9
2018-09-11T01:20:34.491Z,1015.9
2018-09-11T01:21:43.399Z,1015.96
2018-09-11T01:22:52.041Z,1016
2018-09-11T01:24:00.686Z,1016.02
2018-09-11T01:25:09.341Z,1016.1
2018-09-11T01:26:17.979Z,1016.08
2018-09-11T01:27:26.629Z,1016.1
2018-09-11T01:28:35.532Z,1016.11
2018-09-11T01:29:44.193Z,1016.08
2018-09-11T01:30:52.830Z,1016.12
2018-09-11T01:32:01.479Z,1016.07
2018-09-11T01:33:10.115Z,1016.02
2018-09-11T01:34:18.769Z,1015.98
2018-09-11T01:35:27.412Z,1015.97
2018-09-11T01:36:36.316Z,1015.94
2018-09-11T01:37:44.954Z,1015.95
2018-09-11T01:38:53.599Z,1015.94
2018-09-11T01:40:02.251Z,1015.91
2018-09-11T01:41:10.894Z,1015.88
2018-09-11T01:42:19.804Z,1015.9
2018-09-11T01:43:28.443Z,1015.88
2018-09-11T01:44:37.088Z,1015.92
2018-09-11T01:45:45.731Z,1015.92
2018-09-11T01:46:54.383Z,1015.94
2018-09-11T01:48:03.025Z,1015.92
2018-09-11T01:49:11.671Z,1015.97
2018-09-11T01:50:20.318Z,1015.95
2018-09-11T01:51:28.965Z,1015.94
2018-09-11T01:52:37.865Z,1015.91
2018-09-11T01:53:46.510Z,1015.91
2018-09-11T01:54:55.154Z,1015.86
2018-09-11T01:56:03.802Z,1015.87
2018-09-11T01:57:12.443Z,1015.9
2018-09-11T01:58:21.088Z,1015.92
2018-09-11T01:59:29.731Z,1015.9
2018-09-11T02:00:38.371Z,1015.9
2018-09-11T02:01:47.018Z,1015.87
2018-09-11T02:02:55.663Z,1015.82
2018-09-11T02:04:04.305Z,1015.81
2018-09-11T02:05:13.471Z,1015.8
2018-09-11T02:06:22.120Z,1015.76
2018-09-11T02:07:30.766Z,1015.76
2018-09-11T02:08:39.407Z,1015.78
2018-09-11T02:09:48.052Z,1015.79
2018-09-11T02:10:57.226Z,1015.74
2018-09-11T02:12:05.871Z,1015.78
2018-09-11T02:13:14.519Z,1015.75
2018-09-11T02:14:23.157Z,1015.73
2018-09-11T02:15:31.803Z,1015.74
2018-09-11T02:16:40.713Z,1015.73
2018-09-11T02:17:49.360Z,1015.76
2018-09-11T02:18:58.007Z,1015.74
2018-09-11T02:20:06.647Z,1015.75
2018-09-11T02:21:15.291Z,1015.77
2018-09-11T02:22:23.931Z,1015.82
2018-09-11T02:23:32.580Z,1015.83
2018-09-11T02:24:41.220Z,1015.83
2018-09-11T02:25:49.864Z,1015.88
2018-09-11T02:26:58.484Z,1015.86
2018-09-11T02:28:07.105Z,1015.87
2018-09-11T02:29:15.724Z,1015.85
2018-09-11T02:30:24.607Z,1015.88
2018-09-11T02:31:33.229Z,1015.93
2018-09-11T02:32:41.852Z,1015.89
2018-09-11T02:33:50.473Z,1015.89
2018-09-11T02:34:59.358Z,1015.96
2018-09-11T02:36:07.981Z,1015.88
2018-09-11T02:37:16.611Z,1015.95
2018-09-11T02:38:25.797Z,1015.97
2018-09-11T02:39:34.444Z,1015.92
2018-09-11T02:40:43.098Z,1015.94
2018-09-11T02:41:51.993Z,1015.92
2018-09-11T02:43:00.645Z,1015.92
2018-09-11T02:44:09.286Z,1015.97
2018-09-11T02:45:17.933Z,1015.94
2018-09-11T02:46:26.829Z,1015.94
2018-09-11T02:47:35.481Z,1015.92
2018-09-11T02:48:44.384Z,1015.92
2018-09-11T02:49:53.028Z,1015.91
2018-09-11T02:51:01.671Z,1015.9
2018-09-11T02:52:10.577Z,1015.86
2018-09-11T02:53:19.495Z,1015.9
2018-09-11T02:54:28.140Z,1015.89
2018-09-11T02:55:36.788Z,1015.92
2018-09-11T02:56:45.422Z,1015.86
2018-09-11T02:57:54.072Z,1015.91
2018-09-11T02:59:02.715Z,1015.94
2018-09-11T03:00:11.377Z,1015.95
2018-09-11T03:01:20.013Z,1015.95
2018-09-11T03:02:28.926Z,1015.94
2018-09-11T03:03:37.566Z,1015.96
2018-09-11T03:04:46.484Z,1015.94
2018-09-11T03:05:55.121Z,1015.92
2018-09-11T03:07:03.774Z,1015.94
2018-09-11T03:08:12.415Z,1015.91
2018-09-11T03:09:21.069Z,1015.9
2018-09-11T03:10:29.714Z,1015.94
2018-09-11T03:11:38.362Z,1015.9
2018-09-11T03:12:47.269Z,1015.89
2018-09-11T03:13:55.910Z,1015.87
2018-09-11T03:15:04.564Z,1015.87
2018-09-11T03:16:13.204Z,1015.9
2018-09-11T03:17:21.855Z,1015.89
2018-09-11T03:18:30.490Z,1015.87
2018-09-11T03:19:39.737Z,1015.9
2018-09-11T03:20:48.639Z,1015.93
2018-09-11T03:21:57.288Z,1015.98
2018-09-11T03:23:06.188Z,1016.01
2018-09-11T03:24:14.842Z,1016.02
2018-09-11T03:25:23.746Z,1015.97
2018-09-11T03:26:32.393Z,1015.98
2018-09-11T03:27:41.292Z,1015.97
2018-09-11T03:28:49.937Z,1015.95
2018-09-11T03:29:58.590Z,1015.97
2018-09-11T03:31:07.237Z,1015.94
2018-09-11T03:32:16.153Z,1015.93
2018-09-11T03:33:25.062Z,1015.92
2018-09-11T03:34:33.711Z,1015.92
2018-09-11T03:35:42.351Z,1015.91
2018-09-11T03:36:51.004Z,1015.9
2018-09-11T03:37:59.651Z,1015.91
2018-09-11T03:39:08.291Z,1015.89
2018-09-11T03:40:16.934Z,1015.89
2018-09-11T03:41:25.584Z,1015.86
2018-09-11T03:42:34.224Z,1015.88
2018-09-11T03:43:42.870Z,1015.86
2018-09-11T03:44:51.515Z,1015.87
2018-09-11T03:46:00.168Z,1015.82
2018-09-11T03:47:09.351Z,1015.82
2018-09-11T03:48:18.005Z,1015.77
2018-09-11T03:49:26.907Z,1015.77
2018-09-11T03:50:35.815Z,1015.78
2018-09-11T03:51:44.474Z,1015.78
2018-09-11T03:52:53.377Z,1015.79
2018-09-11T03:54:02.053Z,1015.79
2018-09-11T03:55:10.951Z,1015.81
2018-09-11T03:56:19.607Z,1015.79
2018-09-11T03:57:28.252Z,1015.8
2018-09-11T03:58:36.903Z,1015.81
2018-09-11T03:59:45.544Z,1015.8
2018-09-11T04:00:54.195Z,1015.82
2018-09-11T04:02:02.837Z,1015.82
2018-09-11T04:03:11.482Z,1015.79
2018-09-11T04:04:20.121Z,1015.79
2018-09-11T04:05:29.973Z,1015.78
2018-09-11T04:06:38.600Z,1015.77
2018-09-11T04:07:47.264Z,1015.78
2018-09-11T04:08:55.912Z,1015.81
2018-09-11T04:10:04.560Z,1015.84
2018-09-11T04:11:13.739Z,1015.83
2018-09-11T04:12:22.385Z,1015.83
2018-09-11T04:13:31.035Z,1015.83
2018-09-11T04:14:39.679Z,1015.83
2018-09-11T04:15:48.594Z,1015.77
2018-09-11T04:16:57.496Z,1015.76
2018-09-11T04:18:06.143Z,1015.67
2018-09-11T04:19:14.783Z,1015.64
2018-09-11T04:20:23.692Z,1015.58
2018-09-11T04:21:32.336Z,1015.51
2018-09-11T04:22:40.981Z,1015.51
2018-09-11T04:23:49.884Z,1015.56
2018-09-11T04:24:58.528Z,1015.51
2018-09-11T04:26:07.170Z,1015.52
2018-09-11T04:27:16.078Z,1015.48
2018-09-11T04:28:24.989Z,1015.5
2018-09-11T04:29:33.633Z,1015.44
2018-09-11T04:30:42.543Z,1015.45
2018-09-11T04:31:51.181Z,1015.5
2018-09-11T04:32:59.829Z,1015.46
2018-09-11T04:34:08.472Z,1015.47
2018-09-11T04:35:17.379Z,1015.4
2018-09-11T04:36:26.166Z,1015.37
2018-09-11T04:37:35.530Z,1015.37
2018-09-11T04:38:44.440Z,1015.38
2018-09-11T04:39:53.085Z,1015.32
2018-09-11T04:41:01.738Z,1015.3
2018-09-11T04:42:10.380Z,1015.32
2018-09-11T04:43:19.027Z,1015.31
2018-09-11T04:44:27.670Z,1015.39
2018-09-11T04:45:36.847Z,1015.41
2018-09-11T04:46:45.496Z,1015.41
2018-09-11T04:47:54.142Z,1015.4
2018-09-11T04:49:02.794Z,1015.39
2018-09-11T04:50:11.428Z,1015.38
2018-09-11T04:51:20.079Z,1015.34
2018-09-11T04:52:28.724Z,1015.34
2018-09-11T04:53:37.897Z,1015.34
2018-09-11T04:54:46.535Z,1015.33
2018-09-11T04:55:55.192Z,1015.37
2018-09-11T04:57:04.168Z,1015.36
2018-09-11T04:58:13.076Z,1015.4
2018-09-11T04:59:21.720Z,1015.36
2018-09-11T05:00:30.627Z,1015.43
2018-09-11T05:01:39.269Z,1015.38
2018-09-11T05:02:47.918Z,1015.39
2018-09-11T05:03:56.573Z,1015.41
2018-09-11T05:05:05.213Z,1015.4
2018-09-11T05:06:14.123Z,1015.42
2018-09-11T05:07:22.771Z,1015.37
2018-09-11T05:08:31.422Z,1015.41
2018-09-11T05:09:40.058Z,1015.36
2018-09-11T05:10:48.710Z,1015.34
2018-09-11T05:11:57.353Z,1015.32
2018-09-11T05:13:06.004Z,1015.31
2018-09-11T05:14:14.908Z,1015.32
2018-09-11T05:15:23.555Z,1015.35
2018-09-11T05:16:32.196Z,1015.33
2018-09-11T05:17:40.845Z,1015.4
2018-09-11T05:18:49.495Z,1015.44
2018-09-11T05:19:58.139Z,1015.41
2018-09-11T05:21:07.047Z,1015.42
2018-09-11T05:22:15.689Z,1015.36
2018-09-11T05:23:24.337Z,1015.41
2018-09-11T05:24:32.981Z,1015.34
2018-09-11T05:25:41.626Z,1015.41
2018-09-11T05:26:50.264Z,1015.37
2018-09-11T05:27:58.912Z,1015.41
2018-09-11T05:29:07.566Z,1015.38
2018-09-11T05:30:16.206Z,1015.41
2018-09-11T05:31:24.847Z,1015.41
2018-09-11T05:32:33.500Z,1015.35
2018-09-11T05:33:42.146Z,1015.41
2018-09-11T05:34:50.792Z,1015.34
2018-09-11T05:35:59.718Z,1015.33
2018-09-11T05:37:08.364Z,1015.31
2018-09-11T05:38:17.012Z,1015.34
2018-09-11T05:39:25.663Z,1015.37
2018-09-11T05:40:34.312Z,1015.37
2018-09-11T05:41:42.944Z,1015.41
2018-09-11T05:42:51.597Z,1015.4
2018-09-11T05:44:00.499Z,1015.4
2018-09-11T05:45:09.416Z,1015.46
2018-09-11T05:46:18.053Z,1015.38
2018-09-11T05:47:26.702Z,1015.38
2018-09-11T05:48:35.347Z,1015.39
2018-09-11T05:49:44.009Z,1015.42
2018-09-11T05:50:52.657Z,1015.4
2018-09-11T05:52:01.302Z,1015.38
2018-09-11T05:53:09.947Z,1015.4
2018-09-11T05:54:19.139Z,1015.33
2018-09-11T05:55:27.781Z,1015.4
2018-09-11T05:56:36.423Z,1015.39
2018-09-11T05:57:45.328Z,1015.38
2018-09-11T05:58:53.969Z,1015.46
2018-09-11T06:00:02.627Z,1015.39
2018-09-11T06:01:11.265Z,1015.35
2018-09-11T06:02:20.175Z,1015.39
2018-09-11T06:03:28.809Z,1015.38
2018-09-11T06:04:37.729Z,1015.41
2018-09-11T06:05:46.445Z,1015.4
2018-09-11T06:06:55.019Z,1015.47
2018-09-11T06:08:03.653Z,1015.42
2018-09-11T06:09:12.309Z,1015.46
2018-09-11T06:10:20.947Z,1015.45
2018-09-11T06:11:29.593Z,1015.45
2018-09-11T06:12:38.230Z,1015.44
2018-09-11T06:13:46.876Z,1015.45
2018-09-11T06:14:55.528Z,1015.44
2018-09-11T06:16:04.177Z,1015.5
2018-09-11T06:17:12.827Z,1015.49
2018-09-11T06:18:21.463Z,1015.52
2018-09-11T06:19:30.113Z,1015.54
2018-09-11T06:20:38.761Z,1015.56
2018-09-11T06:21:47.416Z,1015.55
2018-09-11T06:22:56.054Z,1015.53
2018-09-11T06:24:04.703Z,1015.5
2018-09-11T06:25:13.614Z,1015.53
2018-09-11T06:26:22.544Z,1015.54
2018-09-11T06:27:31.181Z,1015.54
2018-09-11T06:28:39.832Z,1015.62
2018-09-11T06:29:48.469Z,1015.54
2018-09-11T06:30:57.125Z,1015.59
2018-09-11T06:32:05.768Z,1015.62
2018-09-11T06:33:14.405Z,1015.69
2018-09-11T06:34:23.052Z,1015.66
2018-09-11T06:35:31.743Z,1015.68
2018-09-11T06:36:40.340Z,1015.65
2018-09-11T06:37:48.985Z,1015.65
2018-09-11T06:38:57.629Z,1015.62
2018-09-11T06:40:06.279Z,1015.58
2018-09-11T06:41:14.979Z,1015.56
2018-09-11T06:42:23.574Z,1015.6
2018-09-11T06:43:32.485Z,1015.6
2018-09-11T06:44:41.175Z,1015.61
2018-09-11T06:45:49.786Z,1015.62
2018-09-11T06:46:58.464Z,1015.59
2018-09-11T06:48:07.083Z,1015.61
2018-09-11T06:49:16.005Z,1015.62
2018-09-11T06:50:24.648Z,1015.62
2018-09-11T06:51:33.295Z,1015.48
2018-09-11T06:52:41.936Z,1015.48
2018-09-11T06:53:50.578Z,1015.46
2018-09-11T06:54:59.490Z,1015.46
2018-09-11T06:56:08.136Z,1015.46
2018-09-11T06:57:16.783Z,1015.43
2018-09-11T06:58:25.693Z,1015.42
2018-09-11T06:59:34.457Z,1015.42
2018-09-11T07:00:43.179Z,1015.48
2018-09-11T07:01:52.130Z,1015.48
2018-09-11T07:03:00.657Z,1015.44
2018-09-11T07:04:09.304Z,1015.56
2018-09-11T07:05:18.213Z,1015.44
2018-09-11T07:06:26.859Z,1015.55
2018-09-11T07:07:35.760Z,1015.55
2018-09-11T07:08:44.407Z,1015.58
2018-09-11T07:09:53.052Z,1015.55
2018-09-11T07:11:01.701Z,1015.64
2018-09-11T07:12:10.613Z,1015.64
2018-09-11T07:13:19.252Z,1015.68
2018-09-11T07:14:27.899Z,1015.69
2018-09-11T07:15:36.544Z,1015.76
2018-09-11T07:16:45.194Z,1015.71
2018-09-11T07:17:53.847Z,1015.71
2018-09-11T07:19:02.481Z,1015.64
2018-09-11T07:20:11.450Z,1015.62
2018-09-11T07:21:20.584Z,1015.71
2018-09-11T07:22:29.224Z,1015.74
2018-09-11T07:23:37.872Z,1015.77
2018-09-11T07:24:46.515Z,1015.74
2018-09-11T07:25:55.166Z,1015.76
2018-09-11T07:27:03.809Z,1015.74
2018-09-11T07:28:12.454Z,1015.81
2018-09-11T07:29:21.368Z,1015.86
2018-09-11T07:30:30.396Z,1015.74
2018-09-11T07:31:38.927Z,1015.83
2018-09-11T07:32:47.837Z,1015.82
2018-09-11T07:33:56.489Z,1015.79
2018-09-11T07:35:05.397Z,1015.82
2018-09-11T07:36:14.115Z,1015.75
2018-09-11T07:37:22.703Z,1015.71
2018-09-11T07:38:31.354Z,1015.71
2018-09-11T07:39:39.989Z,1015.72
2018-09-11T07:40:48.643Z,1015.74
2018-09-11T07:41:57.285Z,1015.77
2018-09-11T07:43:05.932Z,1015.79
2018-09-11T07:44:14.570Z,1015.76
2018-09-11T07:45:23.272Z,1015.79
2018-09-11T07:46:32.283Z,1015.73
2018-09-11T07:47:40.932Z,1015.8
2018-09-11T07:48:49.585Z,1015.8
2018-09-11T07:49:58.222Z,1015.77
2018-09-11T07:51:07.144Z,1015.84
2018-09-11T07:52:15.787Z,1015.8
2018-09-11T07:53:24.715Z,1015.82
2018-09-11T07:54:33.613Z,1015.75
2018-09-11T07:55:42.265Z,1015.73
2018-09-11T07:56:50.912Z,1015.73
2018-09-11T07:57:59.639Z,1015.78
2018-09-11T07:59:08.204Z,1015.82
2018-09-11T08:00:16.851Z,1015.78
2018-09-11T08:01:25.499Z,1015.87
2018-09-11T08:02:34.154Z,1015.81
2018-09-11T08:03:42.799Z,1015.76
2018-09-11T08:04:51.446Z,1015.79
2018-09-11T08:06:00.084Z,1015.84
2018-09-11T08:07:08.727Z,1015.88
2018-09-11T08:08:17.385Z,1015.88
2018-09-11T08:09:26.074Z,1015.92
2018-09-11T08:10:34.673Z,1015.93
2018-09-11T08:11:43.307Z,1015.9
2018-09-11T08:12:52.272Z,1015.93
2018-09-11T08:14:00.915Z,1015.98
2018-09-11T08:15:09.568Z,1015.99
2018-09-11T08:16:18.265Z,1015.93
2018-09-11T08:17:26.862Z,1015.95
2018-09-11T08:18:35.507Z,1015.93
2018-09-11T08:19:44.434Z,1015.9
2018-09-11T08:20:53.712Z,1015.88
2018-09-11T08:22:02.909Z,1015.85
2018-09-11T08:23:11.562Z,1015.83
2018-09-11T08:24:20.213Z,1015.83
2018-09-11T08:25:29.135Z,1015.75
2018-09-11T08:26:37.775Z,1015.82
2018-09-11T08:27:46.692Z,1015.69
2018-09-11T08:28:55.336Z,1015.81
2018-09-11T08:30:03.998Z,1015.9
2018-09-11T08:31:12.636Z,1015.88
2018-09-11T08:32:21.278Z,1016.06
2018-09-11T08:33:30.204Z,1015.93
2018-09-11T08:34:38.839Z,1015.91
2018-09-11T08:35:47.499Z,1015.91
2018-09-11T08:36:56.145Z,1015.81
2018-09-11T08:38:04.795Z,1015.93
2018-09-11T08:39:13.434Z,1015.91
2018-09-11T08:40:22.347Z,1015.9
2018-09-11T08:41:30.998Z,1015.97
2018-09-11T08:42:39.651Z,1015.94
2018-09-11T08:43:48.298Z,1015.99
2018-09-11T08:44:56.933Z,1015.83
2018-09-11T08:46:05.584Z,1015.84
2018-09-11T08:47:14.225Z,1015.95
2018-09-11T08:48:22.886Z,1015.99
2018-09-11T08:49:31.789Z,1016.03
2018-09-11T08:50:40.432Z,1016.01
2018-09-11T08:51:49.087Z,1016.01
2018-09-11T08:52:57.739Z,1016.06
2018-09-11T08:54:06.378Z,1016.03
2018-09-11T08:55:15.031Z,1016.04
2018-09-11T08:56:23.961Z,1016
2018-09-11T08:57:32.615Z,1015.99
2018-09-11T08:58:41.418Z,1015.98
2018-09-11T08:59:49.908Z,1016.06
2018-09-11T09:00:58.553Z,1016.02
2018-09-11T09:02:07.198Z,1015.96
2018-09-11T09:03:15.854Z,1015.98
2018-09-11T09:04:24.496Z,1016
2018-09-11T09:05:33.148Z,1015.92
2018-09-11T09:06:42.047Z,1015.93
2018-09-11T09:07:50.706Z,1015.9
2018-09-11T09:08:59.615Z,1015.96
2018-09-11T09:10:08.362Z,1015.93
2018-09-11T09:11:16.907Z,1015.99
2018-09-11T09:12:25.563Z,1015.93
2018-09-11T09:13:34.212Z,1015.99
2018-09-11T09:14:42.863Z,1015.93
2018-09-11T09:15:51.501Z,1015.93
2018-09-11T09:17:00.151Z,1015.88
2018-09-11T09:18:08.806Z,1015.81
2018-09-11T09:19:17.462Z,1015.85
2018-09-11T09:20:26.111Z,1015.77
2018-09-11T09:21:34.753Z,1015.79
2018-09-11T09:22:43.403Z,1015.83
2018-09-11T09:23:52.049Z,1015.87
2018-09-11T09:25:00.702Z,1015.87
2018-09-11T09:26:09.339Z,1015.89
2018-09-11T09:27:17.990Z,1015.87
2018-09-11T09:28:26.630Z,1015.86
2018-09-11T09:29:35.284Z,1015.87
2018-09-11T09:30:43.929Z,1015.89
2018-09-11T09:31:52.576Z,1015.93
2018-09-11T09:33:01.227Z,1015.97
2018-09-11T09:34:10.140Z,1015.86
2018-09-11T09:35:18.788Z,1015.88
2018-09-11T09:36:27.462Z,1015.88
2018-09-11T09:37:36.083Z,1015.92
2018-09-11T09:38:44.794Z,1015.87
2018-09-11T09:39:53.446Z,1015.92
2018-09-11T09:41:02.626Z,1015.95
2018-09-11T09:42:11.279Z,1015.97
2018-09-11T09:43:19.924Z,1016.02
2018-09-11T09:44:28.577Z,1015.91
2018-09-11T09:45:37.225Z,1015.95
2018-09-11T09:46:46.140Z,1015.94
2018-09-11T09:47:54.784Z,1015.9
2018-09-11T09:49:03.465Z,1015.92
2018-09-11T09:50:12.097Z,1015.89
2018-09-11T09:51:20.747Z,1015.95
2018-09-11T09:52:29.392Z,1015.93
2018-09-11T09:53:38.051Z,1015.89
2018-09-11T09:54:47.231Z,1015.94
2018-09-11T09:55:55.882Z,1015.96
2018-09-11T09:57:04.534Z,1015.94
2018-09-11T09:58:13.178Z,1015.89
2018-09-11T09:59:21.831Z,1015.9
2018-09-11T10:00:30.475Z,1015.91
2018-09-11T10:01:39.126Z,1015.87
2018-09-11T10:02:47.932Z,1015.81
2018-09-11T10:03:56.583Z,1015.87
2018-09-11T10:05:05.495Z,1015.79
2018-09-11T10:06:14.147Z,1015.77
2018-09-11T10:07:22.790Z,1015.9
2018-09-11T10:08:31.442Z,1015.73
2018-09-11T10:09:40.088Z,1015.73
2018-09-11T10:10:48.744Z,1015.74
2018-09-11T10:11:57.390Z,1015.79
2018-09-11T10:13:06.037Z,1015.69
2018-09-11T10:14:14.949Z,1015.79
2018-09-11T10:15:23.602Z,1015.68
2018-09-11T10:16:32.341Z,1015.72
2018-09-11T10:17:41.439Z,1015.8
2018-09-11T10:18:49.956Z,1015.74
2018-09-11T10:19:58.635Z,1015.78
2018-09-11T10:21:07.379Z,1015.81
2018-09-11T10:22:16.049Z,1015.8
2018-09-11T10:23:24.715Z,1015.83
2018-09-11T10:24:33.655Z,1015.79
2018-09-11T10:25:42.520Z,1015.83
2018-09-11T10:26:51.167Z,1015.81
2018-09-11T10:28:00.282Z,1015.86
2018-09-11T10:29:09.379Z,1015.78
2018-09-11T10:30:18.029Z,1015.73
2018-09-11T10:31:26.952Z,1015.77
2018-09-11T10:32:36.194Z,1015.81
2018-09-11T10:33:44.887Z,1015.78
2018-09-11T10:34:53.494Z,1015.76
2018-09-11T10:36:02.251Z,1015.6
2018-09-11T10:37:11.042Z,1015.72
2018-09-11T10:38:19.959Z,1015.68
2018-09-11T10:39:28.637Z,1015.71
2018-09-11T10:40:37.259Z,1015.65
2018-09-11T10:41:45.902Z,1015.64
2018-09-11T10:42:54.562Z,1015.66
2018-09-11T10:44:03.475Z,1015.62
2018-09-11T10:45:12.126Z,1015.61
2018-09-11T10:46:20.772Z,1015.61
2018-09-11T10:47:29.434Z,1015.53
2018-09-11T10:48:38.132Z,1015.57
2018-09-11T10:49:46.725Z,1015.58
2018-09-11T10:50:55.371Z,1015.53
2018-09-11T10:52:04.024Z,1015.56
2018-09-11T10:53:12.685Z,1015.66
2018-09-11T10:54:21.585Z,1015.63
2018-09-11T10:55:30.238Z,1015.55
2018-09-11T10:56:38.879Z,1015.56
2018-09-11T10:57:47.539Z,1015.55
2018-09-11T10:58:56.185Z,1015.55
2018-09-11T11:00:04.958Z,1015.56
2018-09-11T11:01:13.862Z,1015.53
2018-09-11T11:02:22.524Z,1015.57
2018-09-11T11:03:31.175Z,1015.49
2018-09-11T11:04:40.090Z,1015.54
2018-09-11T11:05:48.731Z,1015.56
2018-09-11T11:06:57.382Z,1015.49
2018-09-11T11:08:06.300Z,1015.51
2018-09-11T11:09:14.951Z,1015.49
2018-09-11T11:10:23.602Z,1015.53
2018-09-11T11:11:32.242Z,1015.5
2018-09-11T11:12:40.896Z,1015.55
2018-09-11T11:13:49.542Z,1015.45
2018-09-11T11:14:58.202Z,1015.51
2018-09-11T11:16:06.842Z,1015.51
2018-09-11T11:17:15.496Z,1015.5
2018-09-11T11:18:24.143Z,1015.51
2018-09-11T11:19:33.070Z,1015.52
2018-09-11T11:20:41.971Z,1015.59
2018-09-11T11:21:50.624Z,1015.54
2018-09-11T11:22:59.271Z,1015.57
2018-09-11T11:24:07.930Z,1015.55
2018-09-11T11:25:16.577Z,1015.45
2018-09-11T11:26:25.221Z,1015.57
2018-09-11T11:27:34.137Z,1015.57
2018-09-11T11:28:42.784Z,1015.56
2018-09-11T11:29:51.439Z,1015.51
2018-09-11T11:31:00.090Z,1015.55
2018-09-11T11:32:08.738Z,1015.59
2018-09-11T11:33:17.385Z,1015.52
2018-09-11T11:34:26.037Z,1015.54
2018-09-11T11:35:34.686Z,1015.58
2018-09-11T11:36:43.589Z,1015.59
2018-09-11T11:37:51.982Z,1015.55
2018-09-11T11:39:00.637Z,1015.55
2018-09-11T11:40:09.299Z,1015.57
2018-09-11T11:41:17.950Z,1015.44
2018-09-11T11:42:26.666Z,1015.52
2018-09-11T11:43:35.251Z,1015.5
2018-09-11T11:44:43.899Z,1015.48
2018-09-11T11:45:52.551Z,1015.45
2018-09-11T11:47:01.203Z,1015.43
2018-09-11T11:48:09.906Z,1015.45
2018-09-11T11:49:18.826Z,1015.37
2018-09-11T11:50:27.476Z,1015.38
2018-09-11T11:51:36.130Z,1015.39
2018-09-11T11:52:44.776Z,1015.4
2018-09-11T11:53:53.426Z,1015.38
2018-09-11T11:55:02.150Z,1015.41
2018-09-11T11:56:10.730Z,1015.38
2018-09-11T11:57:19.381Z,1015.38
2018-09-11T11:58:28.032Z,1015.36
2018-09-11T11:59:36.682Z,1015.43
2018-09-11T12:00:45.339Z,1015.44
2018-09-11T12:01:54.033Z,1015.4
2018-09-11T12:03:02.680Z,1015.4
2018-09-11T12:04:11.327Z,1015.44
2018-09-11T12:05:19.999Z,1015.45
2018-09-11T12:06:28.653Z,1015.4
2018-09-11T12:07:37.321Z,1015.39
2018-09-11T12:08:46.327Z,1015.4
2018-09-11T12:09:54.976Z,1015.39
2018-09-11T12:11:03.632Z,1015.42
2018-09-11T12:12:12.282Z,1015.32
2018-09-11T12:13:20.940Z,1015.36
2018-09-11T12:14:29.587Z,1015.47
2018-09-11T12:15:38.508Z,1015.36
2018-09-11T12:16:47.174Z,1015.39
2018-09-11T12:17:56.098Z,1015.34
2018-09-11T12:19:04.742Z,1015.3
2018-09-11T12:20:13.396Z,1015.35
2018-09-11T12:21:22.046Z,1015.31
2018-09-11T12:22:30.700Z,1015.26
2018-09-11T12:23:39.355Z,1015.31
2018-09-11T12:24:48.269Z,1015.27
2018-09-11T12:25:56.922Z,1015.29
2018-09-11T12:27:05.572Z,1015.32
2018-09-11T12:28:14.215Z,1015.16
2018-09-11T12:29:22.871Z,1015.3
2018-09-11T12:30:31.521Z,1015.3
2018-09-11T12:31:40.176Z,1015.24
2018-09-11T12:32:49.091Z,1015.28
2018-09-11T12:33:57.746Z,1015.27
2018-09-11T12:35:06.402Z,1015.31
2018-09-11T12:36:15.667Z,1015.16
2018-09-11T12:37:24.322Z,1015.33
2018-09-11T12:38:32.974Z,1015.21
2018-09-11T12:39:41.626Z,1015.22
2018-09-11T12:40:50.278Z,1015.2
2018-09-11T12:41:58.930Z,1015.12
2018-09-11T12:43:07.586Z,1015.18
2018-09-11T12:44:16.231Z,1015.18
2018-09-11T12:45:24.885Z,1015.18
2018-09-11T12:46:34.046Z,1015.21
2018-09-11T12:47:44.698Z,1015.18
2018-09-11T12:48:53.863Z,1015.22
2018-09-11T12:50:02.513Z,1015.1
2018-09-11T12:51:11.168Z,1015.12
2018-09-11T12:52:19.816Z,1015.08
2018-09-11T12:53:28.465Z,1015.09
2018-09-11T12:54:37.224Z,1015.18
2018-09-11T12:55:46.412Z,1015.18
2018-09-11T12:56:55.069Z,1015.17
2018-09-11T12:58:03.980Z,1015.15
2018-09-11T12:59:12.889Z,1015.1
2018-09-11T13:00:21.805Z,1015.17
2018-09-11T13:01:30.467Z,1015.13
2018-09-11T13:02:39.109Z,1015.18
2018-09-11T13:03:47.761Z,1015.15
2018-09-11T13:04:56.674Z,1015.11
2018-09-11T13:06:05.327Z,1015.04
2018-09-11T13:07:13.984Z,1015.13
2018-09-11T13:08:22.896Z,1015.11
2018-09-11T13:09:31.686Z,1015.2
2018-09-11T13:10:40.975Z,1015.12
2018-09-11T13:11:49.887Z,1015.16
2018-09-11T13:12:58.541Z,1015.11
2018-09-11T13:14:07.188Z,1015.11
2018-09-11T13:15:15.858Z,1015.11
2018-09-11T13:16:24.492Z,1015.17
2018-09-11T13:17:33.145Z,1015.18
2018-09-11T13:18:41.796Z,1015.15
2018-09-11T13:19:50.710Z,1015.15
2018-09-11T13:20:59.363Z,1015.19
2018-09-11T13:22:08.015Z,1015.18
2018-09-11T13:23:18.717Z,1015.18
2018-09-11T13:24:27.621Z,1015.18
2018-09-11T13:25:36.276Z,1015.13
2018-09-11T13:26:44.930Z,1015.12
2018-09-11T13:27:53.590Z,1015.09
2018-09-11T13:29:02.231Z,1015.07
2018-09-11T13:30:10.882Z,1015.1
2018-09-11T13:31:19.535Z,1015.17
2018-09-11T13:32:28.193Z,1015.14
2018-09-11T13:33:36.850Z,1015.18
2018-09-11T13:34:45.488Z,1015.17
2018-09-11T13:35:54.135Z,1015.08
2018-09-11T13:37:02.783Z,1015.17
2018-09-11T13:38:11.441Z,1015.25
2018-09-11T13:39:20.086Z,1015.14
2018-09-11T13:40:28.742Z,1015.08
2018-09-11T13:41:37.384Z,1015.12
2018-09-11T13:42:46.047Z,1015.05
2018-09-11T13:43:54.695Z,1015.01
2018-09-11T13:45:03.352Z,1015.11
2018-09-11T13:46:12.274Z,1015
2018-09-11T13:47:21.031Z,1015.07
2018-09-11T13:48:30.786Z,1015.03
2018-09-11T13:49:39.439Z,1015
2018-09-11T13:50:48.080Z,1015.07
2018-09-11T13:51:56.732Z,1015.03
2018-09-11T13:53:05.390Z,1015.08
2018-09-11T13:54:14.040Z,1014.98